Wellington, Texas
Current Conditions -  °F | °C
As of 5:53 AM on Tuesday 27 Jan 2015 (Local Time) from KCDS Reporting Station
Clear Clear  
Wind Chill: 41°   Ceiling: Unl
Heat Index: 44°   Visibility: 10mi
Dew Point: 34°   Wind: 6mph
Humidity: 68%   Direction: 300°WNW
Pressure: 30.16"   Gusts: NA
Location:  34.86°N, 100.21°W
Report Text: KCDS 271153Z AUTO 30005KT 10SM CLR 07/01 A3016 RMK AO2 SLP204 T00670011 10111 20067 55000
Loading
Personal Weather Stations






























Interactive Weather Map New forecast layout! Learn more

10-Day Weather Forecast

Advertisements
Track Severe Weather on mobile